Time;durP1;ratioP1;P1;durP2;ratioP2;P2;SDS_P1;SDS_P2;PMS_P1;PMS_P2;Temp;Humidity;BMP_temperature;BMP_pressure;BME280_temperature;BME280_humidity;BME280_pressure;Samples;Min_cycle;Max_cycle;Signal;HPM_P1;HPM_P2
2023/10/01 00:01:53;;;;;;;23.05;12.35;;;;;;;;;;4978181;28;20480;-65
2023/10/01 00:04:21;;;;;;;25.75;12.20;;;;;;;;;;4976205;28;20035;-68
2023/10/01 00:06:48;;;;;;;24.70;12.65;;;;;;;;;;4985988;28;20049;-66
2023/10/01 00:09:19;;;;;;;21.25;11.75;;;;;;;;;;4976636;28;20530;-65
2023/10/01 00:11:46;;;;;;;21.00;12.13;;;;;;;;;;4984713;28;20038;-68
2023/10/01 00:14:16;;;;;;;23.13;12.80;;;;;;;;;;4976843;28;20045;-65
2023/10/01 00:16:43;;;;;;;22.88;13.48;;;;;;;;;;4979579;28;20115;-65
2023/10/01 00:19:10;;;;;;;21.85;11.57;;;;;;;;;;4978073;28;20049;-63
2023/10/01 00:21:37;;;;;;;23.63;12.65;;;;;;;;;;4977059;28;20495;-65
2023/10/01 00:24:07;;;;;;;22.23;12.40;;;;;;;;;;4976619;28;20413;-65
2023/10/01 00:26:36;;;;;;;23.05;12.18;;;;;;;;;;4985348;28;20341;-65
2023/10/01 00:29:03;;;;;;;23.42;13.02;;;;;;;;;;4982227;28;20057;-65
2023/10/01 00:31:30;;;;;;;22.90;12.40;;;;;;;;;;4976949;28;20153;-64
2023/10/01 00:33:57;;;;;;;24.73;12.38;;;;;;;;;;4975623;28;20038;-65
2023/10/01 00:36:23;;;;;;;22.02;13.35;;;;;;;;;;4978313;28;20092;-63
2023/10/01 00:38:52;;;;;;;24.05;12.73;;;;;;;;;;4978296;28;20165;-63
2023/10/01 00:41:19;;;;;;;27.15;13.48;;;;;;;;;;4975416;28;20253;-62
2023/10/01 00:43:45;;;;;;;26.13;14.30;;;;;;;;;;4983213;28;20038;-65
2023/10/01 00:46:12;;;;;;;26.70;13.57;;;;;;;;;;4977839;28;20423;-63
2023/10/01 00:48:42;;;;;;;26.23;13.73;;;;;;;;;;4976273;28;20034;-63
2023/10/01 00:51:08;;;;;;;23.25;14.15;;;;;;;;;;4976797;28;20625;-65
2023/10/01 00:53:35;;;;;;;25.23;13.55;;;;;;;;;;4975232;28;20687;-65
2023/10/01 00:56:03;;;;;;;26.63;14.13;;;;;;;;;;4977840;28;20510;-65
2023/10/01 00:58:30;;;;;;;27.85;13.20;;;;;;;;;;4974677;28;20553;-65
2023/10/01 01:00:56;;;;;;;27.13;13.75;;;;;;;;;;4974543;28;20077;-64
2023/10/01 01:03:23;;;;;;;25.40;12.95;;;;;;;;;;4973929;28;20043;-65
2023/10/01 01:06:23;;;;;;;27.27;14.00;;;;;;;;;;4976378;28;20128;-65
2023/10/01 01:09:19;;;;;;;26.80;13.20;;;;;;;;;;4976625;28;20042;-65
2023/10/01 01:11:36;;;;;;;26.35;12.90;;;;;;;;;;4974481;28;20054;-65
2023/10/01 01:14:03;;;;;;;25.08;13.65;;;;;;;;;;4977698;28;20517;-64
2023/10/01 01:16:29;;;;;;;27.13;13.40;;;;;;;;;;4975498;28;20377;-64
2023/10/01 01:18:56;;;;;;;21.65;12.35;;;;;;;;;;4975410;28;20418;-63
2023/10/01 01:21:23;;;;;;;21.70;12.25;;;;;;;;;;4976441;28;20042;-66
2023/10/01 01:23:50;;;;;;;24.23;12.90;;;;;;;;;;4976994;28;20057;-64
2023/10/01 01:26:23;;;;;;;22.65;12.57;;;;;;;;;;4974659;28;20048;-64
2023/10/01 01:28:49;;;;;;;20.45;12.23;;;;;;;;;;4983804;28;20326;-65
2023/10/01 01:31:16;;;;;;;22.65;12.68;;;;;;;;;;4976034;28;20061;-66
2023/10/01 01:33:52;;;;;;;26.20;14.20;;;;;;;;;;4975876;28;20042;-66
2023/10/01 01:36:20;;;;;;;23.52;12.48;;;;;;;;;;4977092;28;20135;-64
2023/10/01 01:39:25;;;;;;;23.58;13.23;;;;;;;;;;4975877;28;20038;-66
2023/10/01 01:41:51;;;;;;;24.80;12.13;;;;;;;;;;4982596;28;20044;-64
2023/10/01 01:44:19;;;;;;;26.17;13.45;;;;;;;;;;4976252;28;20119;-64
2023/10/01 01:46:49;;;;;;;25.58;13.80;;;;;;;;;;4978924;28;20124;-60
2023/10/01 01:49:19;;;;;;;23.30;12.93;;;;;;;;;;4979427;28;20049;-62
2023/10/01 01:52:03;;;;;;;24.70;13.00;;;;;;;;;;4978681;28;20140;-64
2023/10/01 01:54:29;;;;;;;;;;;;;;;;;;4981434;28;20483;-64
2023/10/01 01:56:56;;;;;;;21.88;12.05;;;;;;;;;;4982652;28;19976;-66
2023/10/01 01:59:24;;;;;;;23.85;12.77;;;;;;;;;;4980978;28;20039;-66
2023/10/01 02:01:52;;;;;;;26.92;12.45;;;;;;;;;;4983285;28;20487;-66
2023/10/01 02:04:20;;;;;;;21.98;12.50;;;;;;;;;;4998743;28;20038;-64
2023/10/01 02:06:47;;;;;;;24.30;12.77;;;;;;;;;;4983087;28;20038;-64
2023/10/01 02:09:19;;;;;;;24.90;13.55;;;;;;;;;;4983745;28;20045;-65
2023/10/01 02:11:47;;;;;;;26.20;13.02;;;;;;;;;;4983589;28;20046;-66
2023/10/01 02:14:35;;;;;;;24.85;12.32;;;;;;;;;;4979418;28;20041;-65
2023/10/01 02:17:13;;;;;;;25.05;13.52;;;;;;;;;;4987741;28;20141;-64
2023/10/01 02:19:40;;;;;;;24.90;12.73;;;;;;;;;;4980162;28;20570;-65
2023/10/01 02:22:08;;;;;;;25.67;13.27;;;;;;;;;;4979765;28;20065;-65
2023/10/01 02:24:45;;;;;;;27.45;13.18;;;;;;;;;;4977342;28;20050;-66
2023/10/01 02:27:26;;;;;;;26.20;13.48;;;;;;;;;;4980638;28;20038;-65
2023/10/01 02:33:15;;;;;;;20.67;11.70;;;;;;;;;;4979411;28;20156;-64
2023/10/01 02:35:36;;;;;;;24.83;12.35;;;;;;;;;;4978968;28;20054;-65
2023/10/01 02:38:06;;;;;;;21.42;12.52;;;;;;;;;;4980509;28;20045;-64
2023/10/01 02:40:37;;;;;;;23.80;11.80;;;;;;;;;;4978841;28;20101;-67
2023/10/01 02:43:07;;;;;;;23.13;12.90;;;;;;;;;;4980630;28;20046;-63
2023/10/01 02:45:35;;;;;;;24.15;13.20;;;;;;;;;;4980053;28;20053;-63
2023/10/01 02:48:16;;;;;;;25.02;13.57;;;;;;;;;;4979794;28;20050;-62
2023/10/01 02:50:53;;;;;;;26.30;13.85;;;;;;;;;;4978583;28;20046;-65
2023/10/01 02:53:21;;;;;;;23.52;13.70;;;;;;;;;;4981233;28;20121;-64
2023/10/01 02:55:48;;;;;;;23.88;13.43;;;;;;;;;;4980908;28;20097;-65
2023/10/01 02:58:20;;;;;;;26.20;14.70;;;;;;;;;;4980543;28;20132;-64
2023/10/01 03:00:50;;;;;;;22.55;12.07;;;;;;;;;;5007589;28;20044;-64
2023/10/01 03:03:18;;;;;;;24.50;13.75;;;;;;;;;;4984468;28;20034;-66
2023/10/01 03:05:48;;;;;;;24.52;13.88;;;;;;;;;;4981742;28;20042;-65
2023/10/01 03:11:04;;;;;;;25.27;14.20;;;;;;;;;;4974717;28;20081;-65
2023/10/01 03:13:32;;;;;;;24.55;13.45;;;;;;;;;;4992916;28;20046;-65
2023/10/01 03:18:47;;;;;;;27.77;14.90;;;;;;;;;;4978491;28;20048;-65
2023/10/01 03:22:13;;;;;;;28.85;15.45;;;;;;;;;;4994828;28;20046;-65
2023/10/01 03:24:10;;;;;;;27.23;15.43;;;;;;;;;;4984891;28;20197;-65
2023/10/01 03:26:43;;;;;;;26.70;14.27;;;;;;;;;;4989108;28;20041;-64
2023/10/01 03:29:34;;;;;;;26.65;14.63;;;;;;;;;;4990408;28;20333;-65
2023/10/01 03:32:26;;;;;;;27.55;14.60;;;;;;;;;;4978187;28;20077;-66
2023/10/01 03:34:52;;;;;;;28.02;14.80;;;;;;;;;;4983546;28;20046;-64
2023/10/01 03:37:19;;;;;;;26.65;14.35;;;;;;;;;;5000552;28;20099;-64
2023/10/01 03:39:52;;;;;;;22.83;13.02;;;;;;;;;;4979110;28;20125;-62
2023/10/01 03:42:19;;;;;;;27.85;15.40;;;;;;;;;;4979357;28;20045;-65
2023/10/01 03:47:34;;;;;;;31.20;16.20;;;;;;;;;;4963775;28;20088;-64
2023/10/01 03:50:02;;;;;;;30.00;16.15;;;;;;;;;;4993576;28;20049;-66
2023/10/01 03:52:30;;;;;;;29.88;15.32;;;;;;;;;;4979344;28;20042;-66
2023/10/01 03:55:00;;;;;;;28.70;16.05;;;;;;;;;;4979896;28;20089;-66
2023/10/01 03:57:30;;;;;;;29.80;15.68;;;;;;;;;;4976841;28;20061;-67
2023/10/01 04:00:28;;;;;;;25.23;15.02;;;;;;;;;;4973525;28;20089;-68
2023/10/01 04:02:46;;;;;;;32.55;16.20;;;;;;;;;;4978120;28;20111;-68
2023/10/01 04:05:30;;;;;;;25.63;14.13;;;;;;;;;;4979115;28;20049;-64
2023/10/01 04:08:06;;;;;;;26.90;15.32;;;;;;;;;;4986905;28;20157;-65
2023/10/01 04:10:34;;;;;;;28.90;14.85;;;;;;;;;;4977663;28;20054;-65
2023/10/01 04:16:08;;;;;;;29.52;15.63;;;;;;;;;;5001699;28;20061;-66
2023/10/01 04:18:36;;;;;;;28.60;15.77;;;;;;;;;;4977777;28;20043;-66
2023/10/01 04:23:33;;;;;;;27.42;14.82;;;;;;;;;;4977798;28;20041;-65
2023/10/01 04:26:04;;;;;;;26.98;16.65;;;;;;;;;;4979423;28;20042;-65
2023/10/01 04:28:37;;;;;;;29.27;15.50;;;;;;;;;;4977596;28;20050;-64
2023/10/01 04:31:09;;;;;;;30.75;15.55;;;;;;;;;;4977443;28;20046;-64
2023/10/01 04:33:36;;;;;;;28.85;15.52;;;;;;;;;;4978298;28;20049;-65
2023/10/01 04:36:10;;;;;;;28.05;15.75;;;;;;;;;;4958660;28;20459;-66
2023/10/01 04:38:37;;;;;;;28.88;15.88;;;;;;;;;;4976073;28;20177;-67
2023/10/01 04:41:04;;;;;;;31.23;16.70;;;;;;;;;;4976814;28;20046;-66
2023/10/01 04:43:35;;;;;;;33.25;15.95;;;;;;;;;;4978014;28;20050;-66
2023/10/01 04:46:04;;;;;;;24.10;14.10;;;;;;;;;;4977876;28;20519;-65
2023/10/01 04:48:33;;;;;;;30.40;15.55;;;;;;;;;;4977805;28;20081;-68
2023/10/01 04:51:02;;;;;;;24.80;14.52;;;;;;;;;;4976498;28;20033;-66
2023/10/01 04:53:30;;;;;;;23.45;13.65;;;;;;;;;;4977801;28;20034;-65
2023/10/01 04:56:00;;;;;;;27.38;14.85;;;;;;;;;;4976433;28;20046;-70
2023/10/01 04:58:32;;;;;;;26.08;14.07;;;;;;;;;;4977503;28;20558;-68
2023/10/01 05:01:01;;;;;;;32.35;15.95;;;;;;;;;;4977557;28;20046;-65
2023/10/01 05:03:40;;;;;;;29.67;14.88;;;;;;;;;;4991709;28;20807;-65
2023/10/01 05:06:14;;;;;;;31.23;15.43;;;;;;;;;;4976960;28;20046;-65
2023/10/01 05:08:42;;;;;;;27.92;14.90;;;;;;;;;;4976615;28;20046;-66
2023/10/01 05:11:13;;;;;;;26.30;13.82;;;;;;;;;;4975379;28;20377;-65
2023/10/01 05:13:41;;;;;;;28.98;14.85;;;;;;;;;;4978262;28;20173;-65
2023/10/01 05:16:14;;;;;;;26.35;14.15;;;;;;;;;;4991352;28;21327;-64
2023/10/01 05:18:45;;;;;;;26.70;14.05;;;;;;;;;;4976022;28;20049;-67
2023/10/01 05:21:12;;;;;;;33.17;16.48;;;;;;;;;;4973966;28;20046;-62
2023/10/01 05:23:39;;;;;;;31.10;15.93;;;;;;;;;;4976580;28;20152;-65
2023/10/01 05:26:10;;;;;;;33.80;17.00;;;;;;;;;;4976820;28;20057;-65
2023/10/01 05:28:41;;;;;;;30.20;16.27;;;;;;;;;;4989036;28;20137;-65
2023/10/01 05:31:24;;;;;;;30.17;15.50;;;;;;;;;;4976645;28;20491;-62
2023/10/01 05:33:52;;;;;;;28.73;15.18;;;;;;;;;;4983860;28;20680;-64
2023/10/01 05:36:19;;;;;;;29.60;14.73;;;;;;;;;;4976681;28;20058;-64
2023/10/01 05:39:11;;;;;;;30.85;16.35;;;;;;;;;;4971780;28;20050;-65
2023/10/01 05:41:44;;;;;;;32.30;16.48;;;;;;;;;;4980570;28;20549;-65
2023/10/01 05:44:11;;;;;;;28.45;15.60;;;;;;;;;;4975463;28;20042;-65
2023/10/01 05:46:38;;;;;;;28.42;16.40;;;;;;;;;;4973573;28;20038;-65
2023/10/01 05:49:08;;;;;;;31.75;16.55;;;;;;;;;;4974064;28;20042;-65
2023/10/01 05:51:45;;;;;;;33.05;16.63;;;;;;;;;;4991107;28;20058;-66
2023/10/01 05:54:18;;;;;;;31.05;16.63;;;;;;;;;;4977142;28;20049;-66
2023/10/01 05:56:48;;;;;;;32.20;16.02;;;;;;;;;;4973497;28;20110;-66
2023/10/01 05:59:16;;;;;;;33.75;17.17;;;;;;;;;;4989055;28;20141;-65
2023/10/01 06:02:02;;;;;;;32.35;16.90;;;;;;;;;;4985988;28;20582;-65
2023/10/01 06:04:28;;;;;;;31.45;15.77;;;;;;;;;;4998745;28;20052;-66
2023/10/01 06:06:59;;;;;;;26.40;14.82;;;;;;;;;;4984810;28;20482;-65
2023/10/01 06:09:33;;;;;;;29.60;15.35;;;;;;;;;;4993271;28;20052;-64
2023/10/01 06:12:04;;;;;;;28.90;15.48;;;;;;;;;;5015768;28;20416;-65
2023/10/01 06:14:39;;;;;;;29.67;15.48;;;;;;;;;;5013610;28;20148;-66
2023/10/01 06:17:07;;;;;;;31.83;15.13;;;;;;;;;;5014798;28;20052;-65
2023/10/01 06:19:34;;;;;;;29.77;15.45;;;;;;;;;;5031341;28;20152;-65
2023/10/01 06:24:48;;;;;;;25.98;15.18;;;;;;;;;;5031264;28;20145;-65
2023/10/01 06:27:18;;;;;;;25.35;14.13;;;;;;;;;;5016017;28;20075;-66
2023/10/01 06:29:50;;;;;;;26.75;13.10;;;;;;;;;;5013738;28;20102;-67
2023/10/01 06:32:20;;;;;;;28.37;14.10;;;;;;;;;;5032152;28;20630;-64
2023/10/01 06:34:49;;;;;;;23.05;13.55;;;;;;;;;;5010614;28;20029;-65
2023/10/01 06:37:18;;;;;;;27.50;14.13;;;;;;;;;;5012150;28;20159;-64
2023/10/01 06:39:46;;;;;;;24.95;13.90;;;;;;;;;;4989439;28;20051;-66
2023/10/01 06:42:19;;;;;;;27.65;13.95;;;;;;;;;;4979374;28;20119;-65
2023/10/01 06:44:49;;;;;;;26.45;13.45;;;;;;;;;;4980196;28;20047;-66
2023/10/01 06:47:22;;;;;;;27.88;14.90;;;;;;;;;;4981003;28;20084;-65
2023/10/01 06:52:45;;;;;;;39.53;16.63;;;;;;;;;;4975106;28;20050;-67
2023/10/01 06:55:25;;;;;;;27.70;15.68;;;;;;;;;;4979052;28;20057;-65
2023/10/01 06:58:00;;;;;;;32.00;15.07;;;;;;;;;;4981317;28;20050;-65
2023/10/01 07:00:33;;;;;;;28.80;15.77;;;;;;;;;;4981278;28;20102;-66
2023/10/01 07:03:17;;;;;;;29.60;14.25;;;;;;;;;;4993415;28;20478;-68
2023/10/01 07:05:47;;;;;;;27.90;15.05;;;;;;;;;;5004182;28;20042;-65
2023/10/01 07:08:18;;;;;;;31.13;15.00;;;;;;;;;;4980142;28;20046;-66
2023/10/01 07:10:50;;;;;;;27.77;14.88;;;;;;;;;;4993041;28;20053;-65
2023/10/01 07:13:17;;;;;;;29.53;14.80;;;;;;;;;;4980701;28;20066;-65
2023/10/01 07:15:44;;;;;;;27.45;14.88;;;;;;;;;;4976420;28;20042;-66
2023/10/01 07:18:19;;;;;;;27.75;14.65;;;;;;;;;;4979819;28;20034;-64
2023/10/01 07:20:49;;;;;;;26.45;14.75;;;;;;;;;;5001060;28;20129;-65
2023/10/01 07:23:21;;;;;;;27.85;14.98;;;;;;;;;;4975047;28;20582;-65
2023/10/01 07:25:49;;;;;;;28.98;14.55;;;;;;;;;;4986594;28;20277;-65
2023/10/01 07:28:18;;;;;;;28.95;14.73;;;;;;;;;;4978574;28;20038;-63
2023/10/01 07:30:46;;;;;;;27.05;14.48;;;;;;;;;;4978720;28;20069;-65
2023/10/01 07:33:20;;;;;;;30.50;14.95;;;;;;;;;;4981221;28;20128;-63
2023/10/01 07:35:58;;;;;;;29.63;14.52;;;;;;;;;;4980313;28;20035;-67
2023/10/01 07:38:26;;;;;;;28.98;14.68;;;;;;;;;;4980176;28;20045;-65
2023/10/01 07:41:07;;;;;;;28.77;14.60;;;;;;;;;;4979975;28;20110;-65
2023/10/01 07:43:34;;;;;;;31.75;14.88;;;;;;;;;;4979076;28;20050;-65
2023/10/01 07:46:07;;;;;;;30.38;15.18;;;;;;;;;;4979338;28;20038;-66
2023/10/01 07:48:35;;;;;;;33.30;16.20;;;;;;;;;;4979720;28;20038;-66
2023/10/01 07:51:22;;;;;;;23.98;14.18;;;;;;;;;;4977222;28;20187;-65
2023/10/01 07:53:52;;;;;;;30.95;15.43;;;;;;;;;;5001184;28;20054;-65
2023/10/01 07:56:23;;;;;;;32.42;15.00;;;;;;;;;;4978613;28;20046;-66
2023/10/01 08:01:42;;;;;;;34.22;16.00;;;;;;;;;;4977592;28;20579;-64
2023/10/01 08:04:50;;;;;;;28.73;15.23;;;;;;;;;;4978930;28;20081;-65
2023/10/01 08:07:06;;;;;;;28.23;15.45;;;;;;;;;;4980187;28;20494;-65
2023/10/01 08:09:39;;;;;;;31.67;15.38;;;;;;;;;;4978420;28;21387;-64
2023/10/01 08:12:06;;;;;;;30.88;15.25;;;;;;;;;;4978547;28;20073;-64
2023/10/01 08:14:33;;;;;;;28.10;13.98;;;;;;;;;;4976693;28;20039;-64
2023/10/01 08:17:01;;;;;;;30.60;15.75;;;;;;;;;;4978418;28;20057;-64
2023/10/01 08:19:49;;;;;;;29.33;15.27;;;;;;;;;;4977758;28;20046;-68
2023/10/01 08:22:23;;;;;;;30.83;14.60;;;;;;;;;;4978714;28;20518;-66
2023/10/01 08:24:51;;;;;;;31.25;15.18;;;;;;;;;;4978513;28;20058;-66
2023/10/01 08:27:31;;;;;;;29.70;15.50;;;;;;;;;;4977682;28;20534;-65
2023/10/01 08:32:49;;;;;;;36.47;15.95;;;;;;;;;;4976928;28;20057;-65
2023/10/01 08:35:33;;;;;;;31.13;16.00;;;;;;;;;;4978522;28;20046;-64
2023/10/01 08:37:59;;;;;;;32.65;14.77;;;;;;;;;;4984040;28;20132;-65
2023/10/01 08:40:29;;;;;;;34.28;16.80;;;;;;;;;;4975622;28;20062;-66
2023/10/01 08:42:59;;;;;;;31.60;15.73;;;;;;;;;;4981291;28;20503;-66
2023/10/01 08:45:37;;;;;;;28.13;15.18;;;;;;;;;;5011815;28;20085;-65
2023/10/01 08:48:08;;;;;;;28.38;14.95;;;;;;;;;;4977757;28;20075;-65
2023/10/01 08:50:40;;;;;;;32.75;15.55;;;;;;;;;;4976028;28;20081;-64
2023/10/01 08:53:11;;;;;;;33.35;16.10;;;;;;;;;;4977922;28;20284;-64
2023/10/01 09:00:51;;;;;;;29.95;15.32;;;;;;;;;;4974985;28;20577;-64
2023/10/01 09:03:30;;;;;;;35.58;15.80;;;;;;;;;;4976051;28;20047;-65
2023/10/01 09:06:08;;;;;;;33.78;16.05;;;;;;;;;;4977556;28;20212;-67
2023/10/01 09:08:45;;;;;;;30.35;16.10;;;;;;;;;;4975712;28;20642;-66
2023/10/01 09:11:13;;;;;;;34.78;15.57;;;;;;;;;;4978528;28;20046;-64
2023/10/01 09:14:14;;;;;;;34.85;16.92;;;;;;;;;;4991840;28;20505;-63
2023/10/01 09:16:45;;;;;;;31.02;15.57;;;;;;;;;;4976511;28;20058;-63
2023/10/01 09:19:50;;;;;;;34.40;15.98;;;;;;;;;;4993741;28;20107;-65
2023/10/01 09:24:56;;;;;;;30.77;15.55;;;;;;;;;;4996407;28;20042;-63
2023/10/01 09:27:28;;;;;;;32.80;16.33;;;;;;;;;;5014086;28;20049;-64
2023/10/01 09:30:26;;;;;;;33.83;15.80;;;;;;;;;;5014057;28;20115;-64
2023/10/01 09:32:54;;;;;;;29.50;15.57;;;;;;;;;;4998212;28;20092;-66
2023/10/01 09:35:30;;;;;;;34.38;16.05;;;;;;;;;;4996336;28;20045;-64
2023/10/01 09:38:27;;;;;;;32.78;15.77;;;;;;;;;;4998638;28;20140;-64
2023/10/01 09:40:55;;;;;;;30.70;15.52;;;;;;;;;;4998128;28;20046;-64
2023/10/01 09:43:27;;;;;;;30.77;14.20;;;;;;;;;;4997688;28;20033;-64
2023/10/01 09:45:54;;;;;;;28.40;14.15;;;;;;;;;;5003827;28;20053;-65
2023/10/01 09:48:33;;;;;;;30.80;14.18;;;;;;;;;;4996842;28;20474;-65
2023/10/01 09:51:31;;;;;;;29.33;14.55;;;;;;;;;;4990480;28;20484;-64
2023/10/01 09:54:03;;;;;;;29.30;14.65;;;;;;;;;;4971199;28;20129;-65
2023/10/01 09:56:31;;;;;;;29.48;14.82;;;;;;;;;;4977030;28;20097;-66
2023/10/01 09:59:03;;;;;;;28.85;14.50;;;;;;;;;;4975895;28;20453;-64
2023/10/01 10:01:35;;;;;;;32.30;15.57;;;;;;;;;;4968634;28;20467;-65
2023/10/01 10:04:03;;;;;;;34.22;16.02;;;;;;;;;;4997079;28;20115;-63
2023/10/01 10:06:30;;;;;;;35.53;16.08;;;;;;;;;;4998784;28;20111;-65
2023/10/01 10:09:03;;;;;;;27.73;14.32;;;;;;;;;;4978282;28;20040;-63
2023/10/01 10:11:44;;;;;;;33.00;15.70;;;;;;;;;;4977652;28;20042;-64
2023/10/01 10:14:29;;;;;;;27.48;14.15;;;;;;;;;;4977459;28;20551;-65
2023/10/01 10:17:18;;;;;;;27.08;14.73;;;;;;;;;;4981825;28;20049;-64
2023/10/01 10:23:14;;;;;;;24.73;14.32;;;;;;;;;;4978704;28;20485;-65
2023/10/01 10:25:41;;;;;;;31.90;15.30;;;;;;;;;;4983691;28;20050;-65
2023/10/01 10:28:09;;;;;;;25.13;14.02;;;;;;;;;;4985320;28;20052;-64
2023/10/01 10:30:40;;;;;;;27.02;13.77;;;;;;;;;;4979022;28;20642;-65
2023/10/01 10:33:38;;;;;;;25.77;14.80;;;;;;;;;;4981881;28;20066;-66
2023/10/01 10:36:27;;;;;;;29.90;13.80;;;;;;;;;;4981471;28;20081;-65
2023/10/01 10:38:54;;;;;;;30.58;14.82;;;;;;;;;;4982149;28;20069;-64
2023/10/01 10:41:25;;;;;;;24.13;14.00;;;;;;;;;;4996866;28;20121;-64
2023/10/01 10:44:10;;;;;;;26.23;13.65;;;;;;;;;;4995943;28;20065;-65
2023/10/01 10:46:59;;;;;;;24.58;13.32;;;;;;;;;;4981323;28;20382;-64
2023/10/01 10:49:48;;;;;;;27.98;14.30;;;;;;;;;;4978352;28;20110;-66
2023/10/01 10:52:31;;;;;;;26.40;14.32;;;;;;;;;;4980080;28;20039;-64
2023/10/01 10:55:15;;;;;;;24.65;13.95;;;;;;;;;;4983444;28;20360;-66
2023/10/01 10:57:48;;;;;;;27.40;14.02;;;;;;;;;;4993711;28;20052;-66
2023/10/01 11:00:27;;;;;;;24.35;12.90;;;;;;;;;;4996428;28;21355;-66
2023/10/01 11:02:56;;;;;;;25.58;14.05;;;;;;;;;;4986562;28;20065;-65
2023/10/01 11:05:33;;;;;;;24.95;13.40;;;;;;;;;;4978793;28;20041;-65
2023/10/01 11:08:02;;;;;;;26.70;13.10;;;;;;;;;;4977990;28;20882;-66
2023/10/01 11:10:45;;;;;;;26.33;13.85;;;;;;;;;;4970307;28;20491;-66
2023/10/01 11:13:38;;;;;;;27.77;13.60;;;;;;;;;;5014873;28;20042;-64
2023/10/01 11:16:14;;;;;;;23.48;13.38;;;;;;;;;;5014867;28;20313;-64
2023/10/01 11:18:49;;;;;;;26.85;13.10;;;;;;;;;;5015627;28;20080;-64
2023/10/01 11:21:31;;;;;;;23.65;13.85;;;;;;;;;;5015582;28;20041;-69
2023/10/01 11:24:00;;;;;;;26.92;14.20;;;;;;;;;;5015508;28;20088;-64
2023/10/01 11:26:27;;;;;;;29.58;14.88;;;;;;;;;;5007728;28;20033;-66
2023/10/01 11:29:00;;;;;;;23.90;13.63;;;;;;;;;;5017218;28;20047;-64
2023/10/01 11:31:30;;;;;;;24.45;14.32;;;;;;;;;;5015442;28;20072;-66
2023/10/01 11:34:21;;;;;;;22.92;13.10;;;;;;;;;;5015166;28;20048;-65
2023/10/01 11:36:57;;;;;;;24.38;13.68;;;;;;;;;;5012602;28;20052;-65
2023/10/01 11:39:38;;;;;;;25.27;13.32;;;;;;;;;;5004825;28;20041;-65
2023/10/01 11:42:19;;;;;;;24.88;13.35;;;;;;;;;;5016252;28;20113;-65
2023/10/01 11:44:52;;;;;;;24.75;13.45;;;;;;;;;;4997212;28;20037;-65
2023/10/01 11:47:31;;;;;;;26.73;13.63;;;;;;;;;;5011593;28;20048;-65
2023/10/01 11:50:07;;;;;;;22.45;12.55;;;;;;;;;;4992625;28;20367;-66
2023/10/01 11:52:35;;;;;;;26.98;14.00;;;;;;;;;;4972680;28;20501;-65
2023/10/01 11:55:16;;;;;;;25.02;13.27;;;;;;;;;;4975209;28;20101;-65
2023/10/01 11:57:51;;;;;;;23.58;13.45;;;;;;;;;;4973806;28;20556;-65
2023/10/01 12:03:10;;;;;;;26.17;13.07;;;;;;;;;;4974608;28;20076;-65
2023/10/01 12:05:42;;;;;;;24.65;13.38;;;;;;;;;;4965690;28;20041;-65
2023/10/01 12:08:18;;;;;;;22.08;12.88;;;;;;;;;;4974165;28;20046;-65
2023/10/01 12:10:45;;;;;;;22.67;12.80;;;;;;;;;;4957688;28;20041;-64
2023/10/01 12:13:13;;;;;;;21.42;12.98;;;;;;;;;;4976421;28;20058;-64
2023/10/01 12:15:52;;;;;;;24.90;13.57;;;;;;;;;;4974971;28;20069;-65
2023/10/01 12:18:18;;;;;;;21.95;11.98;;;;;;;;;;4975661;28;20374;-67
2023/10/01 12:20:51;;;;;;;23.48;12.63;;;;;;;;;;4975579;28;20050;-67
2023/10/01 12:23:22;;;;;;;24.05;12.82;;;;;;;;;;4974999;28;20515;-66
2023/10/01 12:28:23;;;;;;;21.60;12.23;;;;;;;;;;4982289;28;20042;-69
2023/10/01 12:31:11;;;;;;;24.90;13.25;;;;;;;;;;4979998;28;20046;-66
2023/10/01 12:33:38;;;;;;;22.15;13.10;;;;;;;;;;4978408;28;20049;-66
2023/10/01 12:36:31;;;;;;;24.38;12.15;;;;;;;;;;4979692;28;21918;-67
2023/10/01 12:39:32;;;;;;;24.20;13.18;;;;;;;;;;4972715;28;20446;-66
2023/10/01 12:44:34;;;;;;;23.65;12.18;;;;;;;;;;4980170;28;20050;-68
2023/10/01 12:47:07;;;;;;;22.85;12.18;;;;;;;;;;4978958;28;20038;-65
2023/10/01 12:49:34;;;;;;;;;;;;;;;;;;4979569;28;20073;-64
2023/10/01 12:52:14;;;;;;;21.30;12.57;;;;;;;;;;4979555;28;19952;-65
2023/10/01 12:54:41;;;;;;;22.65;12.40;;;;;;;;;;4973780;28;20424;-65
2023/10/01 12:57:24;;;;;;;25.52;13.00;;;;;;;;;;4977661;28;20495;-65
2023/10/01 13:02:45;;;;;;;22.73;12.82;;;;;;;;;;4976826;28;20265;-64
2023/10/01 13:05:27;;;;;;;20.58;11.90;;;;;;;;;;4977172;28;20035;-66
2023/10/01 13:07:56;;;;;;;23.23;12.52;;;;;;;;;;4983891;28;20310;-67
2023/10/01 13:10:37;;;;;;;20.83;11.82;;;;;;;;;;4977053;28;20049;-65
2023/10/01 13:13:08;;;;;;;27.73;13.10;;;;;;;;;;4977248;28;20046;-63
2023/10/01 13:15:37;;;;;;;26.52;12.50;;;;;;;;;;4977725;28;20429;-67
2023/10/01 13:18:14;;;;;;;20.75;12.15;;;;;;;;;;4975934;28;20148;-66
2023/10/01 13:21:14;;;;;;;25.25;13.23;;;;;;;;;;4976074;28;20042;-67
2023/10/01 13:23:41;;;;;;;23.92;13.38;;;;;;;;;;4975586;28;20063;-66
2023/10/01 13:26:31;;;;;;;25.52;14.02;;;;;;;;;;4976755;28;20559;-66
2023/10/01 13:29:00;;;;;;;25.08;13.45;;;;;;;;;;4983658;28;20049;-67
2023/10/01 13:35:31;;;;;;;27.20;13.35;;;;;;;;;;4976713;28;20034;-65
2023/10/01 14:09:48;;;;;;;26.27;13.57;;;;;;;;;;4976183;28;20052;-65
2023/10/01 14:15:05;;;;;;;23.42;12.80;;;;;;;;;;4976737;28;20069;-63
2023/10/01 14:17:32;;;;;;;29.63;14.23;;;;;;;;;;4976655;28;20065;-64
2023/10/01 14:19:59;;;;;;;24.67;14.13;;;;;;;;;;4976620;28;20042;-64
2023/10/01 14:22:29;;;;;;;30.35;15.45;;;;;;;;;;4976631;28;20046;-68
2023/10/01 14:24:55;;;;;;;28.63;15.02;;;;;;;;;;4992250;28;20046;-64
2023/10/01 14:27:25;;;;;;;26.35;14.38;;;;;;;;;;4972126;28;20038;-62
2023/10/01 14:30:02;;;;;;;29.50;14.40;;;;;;;;;;4978038;28;20046;-64
2023/10/01 14:32:35;;;;;;;27.63;14.32;;;;;;;;;;4978921;28;20411;-65
2023/10/01 14:35:14;;;;;;;;;;;;;;;;;;4977754;28;20053;-66
2023/10/01 14:37:56;;;;;;;26.95;13.95;;;;;;;;;;4977260;28;20798;-65
2023/10/01 14:40:27;;;;;;;27.50;14.27;;;;;;;;;;4977685;28;20124;-66
2023/10/01 14:43:03;;;;;;;27.20;14.40;;;;;;;;;;4976338;28;20074;-68
2023/10/01 14:45:33;;;;;;;27.00;13.85;;;;;;;;;;4976021;28;20692;-65
2023/10/01 14:48:07;;;;;;;21.70;12.82;;;;;;;;;;4978100;28;20056;-66
2023/10/01 14:50:40;;;;;;;26.10;12.80;;;;;;;;;;4976415;28;20042;-66
2023/10/01 14:53:07;;;;;;;22.13;12.88;;;;;;;;;;4979166;28;20042;-65
2023/10/01 14:55:40;;;;;;;22.40;13.20;;;;;;;;;;4971869;28;20045;-65
2023/10/01 14:58:16;;;;;;;21.73;12.32;;;;;;;;;;5002652;28;21840;-66
2023/10/01 15:00:49;;;;;;;21.65;13.00;;;;;;;;;;4976484;28;20325;-68
2023/10/01 15:03:20;;;;;;;21.55;12.68;;;;;;;;;;4978869;28;20808;-67
2023/10/01 15:05:47;;;;;;;25.50;14.15;;;;;;;;;;4987389;28;20042;-66
2023/10/01 15:08:15;;;;;;;24.33;12.75;;;;;;;;;;4981953;28;20066;-65
2023/10/01 15:10:49;;;;;;;23.90;12.90;;;;;;;;;;4981095;28;20121;-66
2023/10/01 15:13:17;;;;;;;23.67;13.07;;;;;;;;;;4981407;28;20419;-67
2023/10/01 15:15:45;;;;;;;22.00;12.73;;;;;;;;;;4979934;28;20034;-65
2023/10/01 15:18:17;;;;;;;27.83;13.50;;;;;;;;;;4981926;28;20192;-65
2023/10/01 15:20:49;;;;;;;20.38;11.88;;;;;;;;;;4988407;28;20050;-66
2023/10/01 15:23:19;;;;;;;21.38;12.10;;;;;;;;;;4980196;28;20048;-67
2023/10/01 15:25:46;;;;;;;19.77;10.82;;;;;;;;;;4979147;28;20066;-66
2023/10/01 15:28:16;;;;;;;19.15;10.85;;;;;;;;;;4980001;28;20092;-65
2023/10/01 15:30:48;;;;;;;21.48;11.70;;;;;;;;;;4977012;28;20120;-63
2023/10/01 15:33:17;;;;;;;22.05;11.15;;;;;;;;;;4979931;28;20061;-68
2023/10/01 15:35:51;;;;;;;16.27;9.98;;;;;;;;;;4978161;28;20340;-68
2023/10/01 15:38:27;;;;;;;18.25;10.25;;;;;;;;;;4981096;28;20154;-65
2023/10/01 15:40:58;;;;;;;18.83;9.20;;;;;;;;;;4984175;28;20053;-65
2023/10/01 15:43:26;;;;;;;15.60;8.90;;;;;;;;;;4974996;28;20049;-65
2023/10/01 15:46:11;;;;;;;15.95;8.32;;;;;;;;;;4977584;28;20176;-66
2023/10/01 15:48:50;;;;;;;15.68;8.10;;;;;;;;;;4995457;28;20427;-64
2023/10/01 15:51:25;;;;;;;15.65;8.57;;;;;;;;;;5008991;28;20126;-64
2023/10/01 15:53:55;;;;;;;15.20;8.27;;;;;;;;;;4977108;28;20048;-65
2023/10/01 15:56:30;;;;;;;17.48;8.23;;;;;;;;;;4978112;28;20451;-68
2023/10/01 15:58:57;;;;;;;15.50;7.80;;;;;;;;;;4981472;28;20038;-65
2023/10/01 16:01:24;;;;;;;16.42;8.00;;;;;;;;;;4980084;28;20376;-63
2023/10/01 16:03:53;;;;;;;16.45;8.68;;;;;;;;;;4979701;28;20049;-65
2023/10/01 16:06:21;;;;;;;13.07;7.95;;;;;;;;;;4977019;28;20508;-65
2023/10/01 16:08:48;;;;;;;16.33;8.73;;;;;;;;;;4980318;28;20098;-64
2023/10/01 16:11:17;;;;;;;15.90;8.80;;;;;;;;;;4979864;28;20053;-66
2023/10/01 16:13:53;;;;;;;16.88;8.43;;;;;;;;;;4978442;28;20133;-64
2023/10/01 16:16:26;;;;;;;14.15;8.10;;;;;;;;;;4977229;28;20060;-69
2023/10/01 16:18:55;;;;;;;;;;;;;;;;;;4981272;28;20041;-64
2023/10/01 16:21:22;;;;;;;16.92;7.70;;;;;;;;;;4977989;28;19917;-68